Wednesday, September 19, 2018, 6:41 PM GMT
Back to Local

CWQV, Puinte Claveau

Location: , , Canada Lat: 48.267
Local Time: 6:41 PM GMT (18:41 GMT) Lon: -70.117
Time Zone: GMT Elev: 0 ft

Show me the last for .
Show Coded

Time T Td Feel RH Dir Speed Gust Alt SLP Vis Weather Sky Remarks
2018-09-19 18:00 47 - 43 0 90° 10 - - - 0 None
2018-09-19 17:00 48 - 44 0 90° 10 - - - 0 None
2018-09-19 16:00 49 - 44 0 100° 10 - - - 0 None
2018-09-19 15:00 46 - 39 0 90° 14 - - - 0 None
2018-09-19 14:00 47 - 41 0 100° 14 - - - 0 None
2018-09-19 13:00 46 - 40 0 90° 15 - - - 0 None
2018-09-19 12:00 47 - 41 0 90° 15 - - - 0 None
2018-09-19 11:00 46 - 41 0 80° 12 - - - 0 None
2018-09-19 10:00 47 - 41 0 90° 15 - - - 0 None
2018-09-19 09:00 47 - 42 0 80° 10 - - - 0 None
2018-09-19 08:00 47 - 43 0 70° 9 - - - 0 None
2018-09-19 07:00 47 - 43 0 70° 7 - - - 0 None
2018-09-19 06:00 46 - 45 0 80° 3 - - - 0 None
2018-09-19 05:00 46 - 41 0 100° 12 - - - 0 None
2018-09-19 04:00 45 - 41 0 90° 9 - - - 0 None
2018-09-19 03:00 46 - 42 0 80° 8 - - - 0 None
2018-09-19 02:00 45 - 41 0 70° 8 - - - 0 None
2018-09-19 01:00 46 - 41 0 90° 10 - - - 0 None
2018-09-19 00:00 44 - 39 0 90° 9 - - - 0 None
2018-09-18 23:00 46 - 40 0 90° 15 - - - 0 None
2018-09-18 22:00 47 - 41 0 100° 14 - - - 0 Peak wind: 21 mph (19 kts) from 100° at 22 min
2018-09-18 21:00 48 - 42 0 90° 17 - - - 0 Peak wind: 21 mph (19 kts) from 100° at 16 min
2018-09-18 20:00 48 - 42 0 100° 15 - - - 0 Peak wind: 25 mph (22 kts) from 100° at 22 min
2018-09-18 19:00 48 - 41 0 100° 16 22 - - 0 Peak wind: 21 mph (19 kts) from 110° at 59 min

Support USWX by starting your Amazon purchase here.